Time;durP1;ratioP1;P1;durP2;ratioP2;P2;SDS_P1;SDS_P2;PMS_P1;PMS_P2;Temp;Humidity;BMP_temperature;BMP_pressure;BME280_temperature;BME280_humidity;BME280_pressure;Samples;Min_cycle;Max_cycle;Signal;HPM_P1;HPM_P2
2022/09/27 00:00:24;;;;;;;10.13;8.52;;;;;;;-148.88;100.00;74380.00;4996346;28;20027;-75
2022/09/27 00:02:50;;;;;;;11.90;9.05;;;;;;;-148.88;100.00;74375.94;4996056;28;20113;-75
2022/09/27 00:05:15;;;;;;;13.35;9.32;;;;;;;-148.88;100.00;74375.94;4996062;28;20022;-75
2022/09/27 00:07:41;;;;;;;14.07;10.63;;;;;;;-148.88;100.00;74384.06;4994783;28;20022;-76
2022/09/27 00:10:07;;;;;;;15.20;12.35;;;;;;;-148.88;100.00;74382.03;4994529;28;20495;-75
2022/09/27 00:12:33;;;;;;;15.95;12.20;;;;;;;-148.88;100.00;74371.88;4994710;28;20030;-75
2022/09/27 00:14:59;;;;;;;15.30;12.35;;;;;;;-148.88;100.00;74371.88;4994674;28;20037;-75
2022/09/27 00:17:25;;;;;;;15.18;11.68;;;;;;;-148.88;100.00;74371.88;4995844;28;20034;-75
2022/09/27 00:19:50;;;;;;;16.33;12.10;;;;;;;-148.88;100.00;74375.94;4994539;28;20026;-75
2022/09/27 00:22:15;;;;;;;15.35;12.10;;;;;;;-148.88;100.00;74369.84;4995727;28;20026;-75
2022/09/27 00:24:41;;;;;;;15.18;12.38;;;;;;;-148.88;100.00;74367.81;4995954;28;20052;-75
2022/09/27 00:27:06;;;;;;;16.30;12.50;;;;;;;-148.88;100.00;74363.75;4995921;28;20038;-75
2022/09/27 00:29:31;;;;;;;16.95;12.65;;;;;;;-148.88;100.00;74367.81;4995633;28;20427;-75
2022/09/27 00:31:56;;;;;;;18.17;13.77;;;;;;;-148.88;100.00;74363.75;4995496;28;20034;-75
2022/09/27 00:34:24;;;;;;;17.70;14.13;;;;;;;-148.88;100.00;74365.78;4995519;28;20034;-75
2022/09/27 00:36:50;;;;;;;21.55;15.57;;;;;;;-148.88;100.00;74365.78;4995490;28;20038;-75
2022/09/27 00:39:18;;;;;;;22.48;16.85;;;;;;;-148.88;100.00;74355.63;4995755;28;20022;-76
2022/09/27 00:41:44;;;;;;;22.73;16.42;;;;;;;-148.88;100.00;74359.69;4994101;28;20045;-75
2022/09/27 00:44:28;;;;;;;29.00;18.23;;;;;;;-148.88;100.00;74365.78;4995345;28;20030;-75
2022/09/27 00:47:09;;;;;;;24.90;17.95;;;;;;;-148.88;100.00;74355.63;4995292;28;20026;-75
2022/09/27 00:49:52;;;;;;;23.52;17.30;;;;;;;-148.88;100.00;74355.63;4995294;28;20030;-75
2022/09/27 00:52:27;;;;;;;25.73;18.10;;;;;;;-148.88;100.00;74349.53;4994763;28;20084;-74
2022/09/27 00:54:59;;;;;;;23.80;16.77;;;;;;;-148.88;100.00;74351.56;4995246;28;20041;-75
2022/09/27 00:57:24;;;;;;;25.02;16.52;;;;;;;-148.88;100.00;74351.56;4993836;28;20389;-74
2022/09/27 01:00:00;;;;;;;23.27;15.65;;;;;;;-148.88;100.00;74343.44;4995067;28;20026;-74
2022/09/27 01:02:26;;;;;;;20.55;14.70;;;;;;;-148.88;100.00;74347.50;4994948;28;20026;-74
2022/09/27 01:04:52;;;;;;;16.70;13.32;;;;;;;-148.88;100.00;74339.38;4994948;28;20034;-75
2022/09/27 01:07:17;;;;;;;20.42;14.57;;;;;;;-148.88;100.00;74343.44;4995053;28;20034;-74
2022/09/27 01:09:42;;;;;;;18.10;13.27;;;;;;;-148.88;100.00;74333.28;4994903;28;20018;-75
2022/09/27 01:12:20;;;;;;;20.13;12.40;;;;;;;-148.88;100.00;74349.53;4994732;28;20042;-76
2022/09/27 01:15:04;;;;;;;21.58;13.15;;;;;;;-148.88;100.00;74351.56;4994837;28;20045;-75
2022/09/27 01:17:51;;;;;;;22.08;13.63;;;;;;;-148.88;100.00;74361.72;4994777;28;20022;-75
2022/09/27 01:21:03;;;;;;;27.45;16.02;;;;;;;-148.88;100.00;74361.72;4993417;28;20481;-75
2022/09/27 01:24:01;;;;;;;24.92;16.02;;;;;;;-148.88;100.00;74365.78;4995021;28;20041;-75
2022/09/27 01:27:03;;;;;;;30.73;16.00;;;;;;;-148.88;100.00;74367.81;4994593;28;20026;-75
2022/09/27 01:29:45;;;;;;;22.75;9.00;;;;;;;-148.88;100.00;74367.81;4993353;28;20041;-75
2022/09/27 01:32:10;;;;;;;34.35;17.33;;;;;;;-148.88;100.00;74371.88;4994395;28;20031;-75
2022/09/27 01:34:57;;;;;;;29.80;16.83;;;;;;;-148.88;100.00;74367.81;4994956;28;20084;-75
2022/09/27 01:37:35;;;;;;;31.50;17.08;;;;;;;-148.88;100.00;74367.81;4993116;28;20271;-75
2022/09/27 01:40:18;;;;;;;22.55;9.57;;;;;;;-148.88;100.00;74375.94;4994613;28;20034;-74
2022/09/27 01:42:56;;;;;;;27.83;17.42;;;;;;;-148.88;100.00;74371.88;4994575;28;20065;-75
2022/09/27 01:45:30;;;;;;;30.50;16.92;;;;;;;-148.88;100.00;74367.81;4994254;28;20045;-75
2022/09/27 01:47:59;;;;;;;26.98;16.42;;;;;;;-148.88;100.00;74382.03;4994222;28;20038;-75
2022/09/27 01:50:37;;;;;;;26.35;14.60;;;;;;;-148.88;100.00;74375.94;4993985;28;20026;-74
2022/09/27 01:53:07;;;;;;;27.13;15.35;;;;;;;-148.88;100.00;74375.94;4992863;28;20026;-74
2022/09/27 01:55:37;;;;;;;22.52;8.05;;;;;;;-148.88;100.00;74384.06;4994125;28;20026;-74
2022/09/27 01:58:16;;;;;;;22.08;8.40;;;;;;;-148.88;100.00;74388.13;4994056;28;20053;-74
2022/09/27 02:00:46;;;;;;;22.80;13.43;;;;;;;-148.88;100.00;74396.25;4993883;28;20018;-74
2022/09/27 02:03:20;;;;;;;23.90;13.70;;;;;;;-148.88;100.00;74388.13;4993640;28;20109;-75
2022/09/27 02:06:00;;;;;;;23.45;13.13;;;;;;;-148.88;100.00;74392.19;4993716;28;20033;-74
2022/09/27 02:08:37;;;;;;;24.25;12.65;;;;;;;-148.88;100.00;74396.25;4993887;28;20022;-75
2022/09/27 02:11:09;;;;;;;23.33;12.05;;;;;;;-148.88;100.00;74402.34;4993663;28;20050;-74
2022/09/27 02:13:53;;;;;;;17.55;6.88;;;;;;;-148.88;100.00;74402.34;4992571;28;20125;-75
2022/09/27 02:16:32;;;;;;;;;;;;;;;-148.88;100.00;74394.22;4994159;28;20435;-74
2022/09/27 02:19:17;;;;;;;14.55;5.93;;;;;;;-148.88;100.00;74400.31;4994029;28;19910;-74
2022/09/27 02:22:13;;;;;;;19.35;7.70;;;;;;;-148.88;100.00;74408.44;4993741;28;20030;-75
2022/09/27 02:25:00;;;;;;;18.85;11.73;;;;;;;-148.88;100.00;74410.47;4994212;28;20029;-75
2022/09/27 02:27:37;;;;;;;22.48;10.93;;;;;;;-148.88;100.00;74416.53;4994015;28;20101;-75
2022/09/27 02:30:09;;;;;;;15.15;5.43;;;;;;;-148.88;100.00;74418.56;4992253;28;20037;-74
2022/09/27 02:32:35;;;;;;;16.92;9.85;;;;;;;-148.88;100.00;74416.53;4992321;28;20105;-75
2022/09/27 02:35:06;;;;;;;14.38;9.30;;;;;;;-148.88;100.00;74416.53;4993571;28;20390;-75
2022/09/27 02:37:32;;;;;;;16.48;10.05;;;;;;;-148.88;100.00;74420.59;4993503;28;20034;-75
2022/09/27 02:39:57;;;;;;;16.05;10.13;;;;;;;-148.88;100.00;74426.69;4993465;28;20032;-74
2022/09/27 02:42:24;;;;;;;19.77;10.40;;;;;;;-148.88;100.00;74416.53;4993309;28;20019;-75
2022/09/27 02:44:49;;;;;;;18.70;9.60;;;;;;;-148.88;100.00;74412.47;4993647;28;20037;-75
2022/09/27 02:47:35;;;;;;;17.42;10.57;;;;;;;-148.88;100.00;74426.69;4993428;28;20112;-75
2022/09/27 02:50:30;;;;;;;18.75;9.95;;;;;;;-148.88;100.00;74432.78;4993568;28;20027;-74
2022/09/27 02:53:10;;;;;;;;;;;;;;;-148.88;100.00;74428.72;4979365;28;20132;-74
2022/09/27 02:55:57;;;;;;;18.77;10.45;;;;;;;-148.88;100.00;74426.69;4993458;28;20372;-74
2022/09/27 02:58:44;;;;;;;20.20;10.90;;;;;;;-148.88;100.00;74426.69;4991995;28;20033;-75
2022/09/27 03:01:35;;;;;;;20.20;10.43;;;;;;;-148.88;100.00;74432.78;4991937;28;20056;-75
2022/09/27 03:04:16;;;;;;;11.68;4.55;;;;;;;-148.88;100.00;74426.69;4993263;28;20030;-75
2022/09/27 03:06:46;;;;;;;14.82;5.50;;;;;;;-148.88;100.00;74428.72;4991991;28;20026;-75
2022/09/27 03:09:22;;;;;;;17.15;8.68;;;;;;;-148.88;100.00;74428.72;4993216;28;20034;-75
2022/09/27 03:11:48;;;;;;;15.20;8.40;;;;;;;-148.88;100.00;74434.81;4993049;28;20026;-75
2022/09/27 03:14:14;;;;;;;12.77;7.70;;;;;;;-148.88;100.00;74432.78;4993167;28;20397;-74
2022/09/27 03:16:39;;;;;;;13.18;4.35;;;;;;;-148.88;100.00;74430.75;4996045;28;20075;-75
2022/09/27 03:19:05;;;;;;;14.93;7.18;;;;;;;-148.88;100.00;74432.78;4995747;28;20385;-74
2022/09/27 03:21:31;;;;;;;13.85;6.70;;;;;;;-148.88;100.00;74438.88;4995899;28;20034;-74
2022/09/27 03:23:56;;;;;;;14.77;6.57;;;;;;;-148.88;100.00;74442.94;4995846;28;20489;-74
2022/09/27 03:26:22;;;;;;;14.77;7.53;;;;;;;-148.88;100.00;74444.97;4996817;28;20049;-74
2022/09/27 03:28:47;;;;;;;14.10;7.20;;;;;;;-148.88;100.00;74436.84;4996839;28;20050;-75
2022/09/27 03:31:13;;;;;;;14.57;6.85;;;;;;;-148.88;100.00;74444.97;4995341;28;20428;-75
2022/09/27 03:33:39;;;;;;;14.25;6.75;;;;;;;-148.88;100.00;74449.03;5011895;28;20026;-75
2022/09/27 03:36:04;;;;;;;12.95;6.53;;;;;;;-148.88;100.00;74455.13;4996716;28;20033;-75
2022/09/27 03:38:30;;;;;;;14.10;6.60;;;;;;;-148.88;100.00;74447.00;4996958;28;20038;-75
2022/09/27 03:40:55;;;;;;;15.00;6.88;;;;;;;-148.88;100.00;74461.22;4996542;28;20065;-74
2022/09/27 03:43:20;;;;;;;12.40;6.68;;;;;;;-148.88;100.00;74449.03;4996580;28;20062;-75
2022/09/27 03:45:46;;;;;;;13.70;4.10;;;;;;;-148.88;100.00;74444.97;4996357;28;20030;-75
2022/09/27 03:48:12;;;;;;;14.00;6.47;;;;;;;-148.88;100.00;74453.09;4995188;28;20030;-74
2022/09/27 03:50:38;;;;;;;9.35;3.58;;;;;;;-148.88;100.00;74453.09;4996470;28;20025;-75
2022/09/27 03:53:03;;;;;;;14.27;6.50;;;;;;;-148.88;100.00;74461.22;4996297;28;20026;-75
2022/09/27 03:55:28;;;;;;;13.52;6.55;;;;;;;-148.88;100.00;74457.16;4996353;28;20345;-75
2022/09/27 03:57:53;;;;;;;11.52;6.75;;;;;;;-148.88;100.00;74469.34;4996690;28;20022;-74
2022/09/27 04:00:22;;;;;;;12.85;3.80;;;;;;;-148.88;100.00;74461.22;4996110;28;20034;-74
2022/09/27 04:02:48;;;;;;;8.93;3.35;;;;;;;-148.88;100.00;74473.41;4996115;28;20153;-74
2022/09/27 04:05:13;;;;;;;14.63;6.93;;;;;;;-148.88;100.00;74479.50;4996127;28;20109;-75
2022/09/27 04:07:38;;;;;;;13.75;7.72;;;;;;;-148.88;100.00;74465.28;4996111;28;20042;-74
2022/09/27 04:10:04;;;;;;;17.83;8.05;;;;;;;-148.88;100.00;74461.22;4996137;28;20033;-74
2022/09/27 04:12:31;;;;;;;13.95;7.50;;;;;;;-148.88;100.00;74467.31;4994757;28;20117;-74
2022/09/27 04:14:57;;;;;;;16.17;4.95;;;;;;;-148.88;100.00;74479.50;4996019;28;20026;-74
2022/09/27 04:17:24;;;;;;;11.90;6.18;;;;;;;-148.88;100.00;74481.53;4995943;28;20374;-75
2022/09/27 04:19:49;;;;;;;11.65;5.85;;;;;;;-148.88;100.00;74473.41;4996067;28;20038;-75
2022/09/27 04:22:15;;;;;;;12.52;6.18;;;;;;;-148.88;100.00;74489.66;4995752;28;20030;-75
2022/09/27 04:24:40;;;;;;;15.43;6.75;;;;;;;-148.88;100.00;74483.56;4994515;28;20023;-74
2022/09/27 04:27:05;;;;;;;11.27;6.60;;;;;;;-148.88;100.00;74481.53;4994963;28;20596;-75
2022/09/27 04:29:31;;;;;;;10.35;6.05;;;;;;;-148.88;100.00;74493.72;4995685;28;20026;-75
2022/09/27 04:31:56;;;;;;;10.70;5.55;;;;;;;-148.88;100.00;74485.59;4994218;28;20042;-75
2022/09/27 04:36:25;;;;;;;9.73;3.30;;;;;;;-148.88;100.00;74497.78;4996322;28;20038;-74
2022/09/27 04:37:06;;;;;;;12.50;6.05;;;;;;;-148.88;100.00;74489.66;4995364;28;20065;-74
2022/09/27 04:39:32;;;;;;;11.38;5.78;;;;;;;-148.88;100.00;74501.81;4995473;28;20026;-73
2022/09/27 04:41:57;;;;;;;9.15;3.70;;;;;;;-148.88;100.00;74497.78;5010728;28;20029;-74
2022/09/27 04:44:22;;;;;;;10.38;5.65;;;;;;;-148.88;100.00;74499.81;4995672;28;20129;-74
2022/09/27 04:46:48;;;;;;;8.95;4.85;;;;;;;-148.88;100.00;74497.78;4995164;28;20084;-74
2022/09/27 04:49:13;;;;;;;6.78;2.95;;;;;;;-148.88;100.00;74509.94;4994063;28;20037;-74
2022/09/27 04:51:38;;;;;;;6.53;2.92;;;;;;;-148.88;100.00;74514.00;4995314;28;20126;-74
2022/09/27 04:54:03;;;;;;;12.02;6.20;;;;;;;-148.88;100.00;74516.03;4995138;28;20035;-74
2022/09/27 04:56:29;;;;;;;12.07;5.78;;;;;;;-148.88;100.00;74526.19;4995133;28;20034;-74
2022/09/27 04:58:54;;;;;;;6.25;2.58;;;;;;;-148.88;100.00;74516.03;4995065;28;20045;-74
2022/09/27 05:01:19;;;;;;;10.90;5.30;;;;;;;-148.88;100.00;74532.28;4995017;28;20076;-74
2022/09/27 05:03:44;;;;;;;5.88;2.45;;;;;;;-148.88;100.00;74530.25;4995029;28;20052;-74
2022/09/27 05:06:10;;;;;;;10.13;3.30;;;;;;;-148.88;100.00;74550.56;4993729;28;20018;-74
2022/09/27 05:08:35;;;;;;;11.20;5.40;;;;;;;-148.88;100.00;74548.53;4995213;28;20030;-74
2022/09/27 05:11:00;;;;;;;11.77;5.10;;;;;;;-148.88;100.00;74558.69;4994672;28;20018;-74
2022/09/27 05:13:26;;;;;;;8.23;5.18;;;;;;;-148.88;100.00;74550.56;4995096;28;20034;-74
2022/09/27 05:15:51;;;;;;;10.48;2.63;;;;;;;-148.88;100.00;74562.75;4994866;28;20026;-75
2022/09/27 05:18:17;;;;;;;5.38;2.25;;;;;;;-148.88;100.00;74562.75;4994998;28;20022;-75
2022/09/27 05:20:43;;;;;;;7.93;2.95;;;;;;;-148.88;100.00;74562.75;4993380;28;20052;-75
2022/09/27 05:23:09;;;;;;;7.72;4.72;;;;;;;-148.88;100.00;74572.91;4994575;28;20030;-75
2022/09/27 05:25:34;;;;;;;9.48;5.07;;;;;;;-148.88;100.00;74566.81;4994679;28;20105;-75
2022/09/27 05:28:00;;;;;;;8.95;5.47;;;;;;;-148.88;100.00;74570.88;4993329;28;20477;-75
2022/09/27 05:30:26;;;;;;;9.32;4.80;;;;;;;-148.88;100.00;74558.69;4994184;28;20109;-76
2022/09/27 05:32:52;;;;;;;5.70;2.90;;;;;;;-148.88;100.00;74566.81;4994443;28;20050;-75
2022/09/27 05:35:18;;;;;;;9.07;2.78;;;;;;;-148.88;100.00;74579.00;4994695;28;20054;-75
2022/09/27 05:37:53;;;;;;;9.32;5.00;;;;;;;-148.88;100.00;74583.06;4994231;28;20459;-75
2022/09/27 05:40:23;;;;;;;6.07;3.00;;;;;;;-148.88;100.00;74591.19;4994253;28;20026;-75
2022/09/27 05:42:49;;;;;;;6.70;3.17;;;;;;;-148.88;100.00;74593.22;4994249;28;20045;-75
2022/09/27 05:45:15;;;;;;;7.07;4.75;;;;;;;-148.88;100.00;74589.16;4994198;28;20071;-75
2022/09/27 05:47:40;;;;;;;7.10;4.95;;;;;;;-148.88;100.00;74587.13;4992929;28;20049;-75
2022/09/27 05:50:08;;;;;;;6.35;2.78;;;;;;;-148.88;100.00;74597.25;4993998;28;20026;-75
2022/09/27 05:52:34;;;;;;;8.18;4.38;;;;;;;-148.88;100.00;74583.06;4993992;28;20481;-75
2022/09/27 05:54:59;;;;;;;8.23;4.90;;;;;;;-148.88;100.00;74603.34;4994008;28;20045;-75
2022/09/27 05:57:24;;;;;;;11.23;4.57;;;;;;;-148.88;100.00;74599.28;4994255;28;20102;-75
2022/09/27 05:59:49;;;;;;;7.50;2.83;;;;;;;-148.88;100.00;74601.31;4993908;28;20033;-75
2022/09/27 06:02:15;;;;;;;7.18;4.35;;;;;;;-148.88;100.00;74609.44;4993875;28;20054;-75
2022/09/27 06:04:40;;;;;;;8.40;3.88;;;;;;;-148.88;100.00;74615.53;4994166;28;20029;-75
2022/09/27 06:07:05;;;;;;;10.02;4.07;;;;;;;-148.88;100.00;74601.31;4994170;28;20089;-75
2022/09/27 06:09:31;;;;;;;7.93;3.80;;;;;;;-148.88;100.00;74607.41;4993918;28;20029;-76
2022/09/27 06:11:56;;;;;;;9.07;3.58;;;;;;;-148.88;100.00;74607.41;4993814;28;20088;-75
2022/09/27 06:14:21;;;;;;;5.55;2.13;;;;;;;-148.88;100.00;74607.41;4994079;28;20038;-75
2022/09/27 06:16:47;;;;;;;6.10;2.00;;;;;;;-148.88;100.00;74615.53;4993756;28;20445;-75
2022/09/27 06:19:12;;;;;;;4.20;1.67;;;;;;;-148.88;100.00;74627.72;4993762;28;20033;-75
2022/09/27 06:21:37;;;;;;;4.65;1.65;;;;;;;-148.88;100.00;74625.69;5008729;28;20030;-75
2022/09/27 06:24:03;;;;;;;7.00;2.80;;;;;;;-148.88;100.00;74621.63;4993630;28;20076;-75
2022/09/27 06:26:28;;;;;;;3.00;1.52;;;;;;;-148.88;100.00;74625.69;4993605;28;20029;-75
2022/09/27 06:28:54;;;;;;;5.00;1.55;;;;;;;-148.88;100.00;74625.69;4993565;28;20112;-75
2022/09/27 06:31:20;;;;;;;7.13;2.70;;;;;;;-148.88;100.00;74623.66;4993388;28;20034;-75
2022/09/27 06:33:49;;;;;;;10.05;3.13;;;;;;;-148.88;100.00;74619.59;4993884;28;20397;-75
2022/09/27 06:36:14;;;;;;;5.90;1.80;;;;;;;-148.88;100.00;74627.72;5008624;28;20030;-75
2022/09/27 06:38:40;;;;;;;7.93;3.80;;;;;;;-148.88;100.00;74627.72;5008587;28;20485;-75
2022/09/27 06:41:05;;;;;;;9.55;3.92;;;;;;;-148.88;100.00;74643.97;4993565;28;20022;-75
2022/09/27 06:43:32;;;;;;;11.98;3.92;;;;;;;-148.88;100.00;74633.81;4993402;28;20497;-76
2022/09/27 06:46:04;;;;;;;9.48;3.83;;;;;;;-148.88;100.00;74648.03;4993302;28;20129;-76
2022/09/27 06:48:30;;;;;;;11.82;4.03;;;;;;;-148.88;100.00;74654.13;4993504;28;20101;-76
2022/09/27 06:50:56;;;;;;;7.63;2.72;;;;;;;-148.88;100.00;74660.22;4995084;28;20105;-76
2022/09/27 06:53:22;;;;;;;4.22;1.65;;;;;;;-148.88;100.00;74658.19;4997711;28;20030;-76
2022/09/27 06:55:47;;;;;;;9.07;2.92;;;;;;;-148.88;100.00;74652.09;4997513;28;20030;-76
2022/09/27 07:00:57;;;;;;;3.55;1.40;;;;;;;-148.88;100.00;74664.28;4997386;28;20025;-76
2022/09/27 07:03:30;;;;;;;6.40;2.20;;;;;;;-148.88;100.00;74668.34;4997345;28;20409;-76
2022/09/27 07:06:06;;;;;;;6.90;1.50;;;;;;;-148.88;100.00;74662.25;4996115;28;20117;-76
2022/09/27 07:08:32;;;;;;;5.68;1.33;;;;;;;-148.88;100.00;74668.34;4997140;28;20034;-76
2022/09/27 07:11:03;;;;;;;3.58;1.13;;;;;;;-148.88;100.00;74662.25;4997050;28;20033;-76
2022/09/27 07:13:33;;;;;;;3.67;1.23;;;;;;;-148.88;100.00;74664.28;4995914;28;20077;-76
2022/09/27 07:15:59;;;;;;;2.85;1.10;;;;;;;-148.88;100.00;74668.34;4995774;28;20026;-76
2022/09/27 07:18:24;;;;;;;4.88;1.90;;;;;;;-148.88;100.00;74676.47;4997069;28;20072;-75
2022/09/27 07:20:49;;;;;;;8.27;2.05;;;;;;;-148.88;100.00;74668.34;4995748;28;20030;-76
2022/09/27 07:23:15;;;;;;;5.07;1.90;;;;;;;-148.88;100.00;74672.41;4997309;28;20377;-76
2022/09/27 07:25:41;;;;;;;3.63;1.38;;;;;;;-148.88;100.00;74668.34;4996888;28;20019;-76
2022/09/27 07:28:12;;;;;;;3.85;1.65;;;;;;;-148.88;100.00;74680.53;4995894;28;20034;-76
2022/09/27 07:30:37;;;;;;;2.95;1.13;;;;;;;-148.88;100.00;74678.50;4996898;28;20428;-76
2022/09/27 07:33:05;;;;;;;4.10;2.00;;;;;;;-148.88;100.00;74668.34;4995504;28;20559;-76
2022/09/27 07:35:30;;;;;;;6.38;1.45;;;;;;;-148.88;100.00;74670.38;4996800;28;20408;-77
2022/09/27 07:37:57;;;;;;;6.50;2.42;;;;;;;-148.88;100.00;74658.19;4996746;28;20034;-76
2022/09/27 07:40:23;;;;;;;3.35;1.42;;;;;;;-148.88;100.00;74643.97;4996578;28;20033;-76
2022/09/27 07:42:55;;;;;;;4.53;1.50;;;;;;;-148.88;100.00;74623.66;4996686;28;20079;-76
2022/09/27 07:45:22;;;;;;;2.78;1.20;;;;;;;-148.88;100.00;74639.91;4996424;28;20058;-76
2022/09/27 07:47:47;;;;;;;9.48;1.75;;;;;;;-148.88;100.00;74613.50;4996564;28;20022;-77
2022/09/27 07:50:13;;;;;;;4.45;1.20;;;;;;;-148.88;100.00;74611.47;4992788;28;20033;-76
2022/09/27 07:52:45;;;;;;;5.43;1.35;;;;;;;-148.88;100.00;74619.59;4994923;28;20539;-76
2022/09/27 07:55:12;;;;;;;5.57;1.90;;;;;;;-148.88;100.00;74629.75;4996237;28;20119;-76
2022/09/27 07:57:38;;;;;;;4.32;2.03;;;;;;;-148.88;100.00;74627.72;4994526;28;20033;-76
2022/09/27 08:00:06;;;;;;;3.80;1.80;;;;;;;-148.88;100.00;74633.81;4995854;28;20397;-76
2022/09/27 08:02:31;;;;;;;5.32;1.38;;;;;;;-148.88;100.00;74631.78;4995959;28;20104;-76
2022/09/27 08:05:00;;;;;;;3.70;1.65;;;;;;;-148.88;100.00;74607.41;4996075;28;20434;-75
2022/09/27 08:07:26;;;;;;;4.43;1.80;;;;;;;-148.88;100.00;74615.53;4994743;28;20113;-75
2022/09/27 08:09:51;;;;;;;5.07;1.60;;;;;;;-148.88;100.00;74607.41;4995968;28;20124;-75
2022/09/27 08:12:17;;;;;;;6.13;1.90;;;;;;;-148.88;100.00;74601.31;4995790;28;20497;-76
2022/09/27 08:14:42;;;;;;;5.47;1.92;;;;;;;-148.88;100.00;74587.13;4995851;28;20030;-74
2022/09/27 08:17:23;;;;;;;5.35;1.92;;;;;;;-148.88;100.00;74583.06;5058684;23;20102;-89
2022/09/27 08:20:05;;;;;;;4.53;1.83;;;;;;;-148.88;100.00;74568.84;4995928;28;20062;-89
2022/09/27 08:22:31;;;;;;;6.80;1.17;;;;;;;-148.88;100.00;74572.91;4995615;28;20033;-89
2022/09/27 08:25:12;;;;;;;5.50;1.50;;;;;;;-148.88;100.00;74566.81;4995564;28;20146;-89
2022/09/27 08:28:09;;;;;;;7.80;1.23;;;;;;;-148.88;100.00;74556.66;4995539;28;20496;-89
2022/09/27 08:30:37;;;;;;;6.28;2.53;;;;;;;-148.88;100.00;74546.50;4995261;28;20035;-89
2022/09/27 08:33:13;;;;;;;4.90;1.35;;;;;;;-148.88;99.83;74550.56;4994849;28;20034;-87
2022/09/27 08:35:39;;;;;;;2.75;1.17;;;;;;;-148.88;99.83;74538.38;4995281;28;20030;-89
2022/09/27 08:38:07;;;;;;;6.18;1.80;;;;;;;-148.88;99.43;74548.53;4994921;28;20045;-87
2022/09/27 08:41:15;;;;;;;4.68;1.58;;;;;;;-148.88;98.72;74550.56;4994908;28;20030;-88
2022/09/27 08:44:12;;;;;;;4.70;1.45;;;;;;;-148.88;98.33;74526.19;4996162;28;20469;-88
2022/09/27 08:46:57;;;;;;;6.00;1.40;;;;;;;-148.88;99.06;74516.03;4994682;28;20157;-88
2022/09/27 08:49:34;;;;;;;6.15;1.30;;;;;;;-148.88;98.15;74528.22;4996023;28;20053;-87
2022/09/27 08:52:26;;;;;;;6.53;1.45;;;;;;;-148.88;97.78;74518.06;4994611;28;20019;-89
2022/09/27 08:54:57;;;;;;;4.18;1.70;;;;;;;-148.88;95.13;74534.31;4995864;28;20043;-88
2022/09/27 08:57:39;;;;;;;2.92;1.33;;;;;;;-148.88;95.07;74503.84;4995973;28;20109;-86
2022/09/27 09:00:17;;;;;;;5.35;1.42;;;;;;;-148.88;94.72;74487.63;4994413;28;20113;-88
2022/09/27 09:02:47;;;;;;;5.55;1.38;;;;;;;-148.88;93.78;74481.53;4994050;28;20030;-87
2022/09/27 09:05:39;;;;;;;4.55;1.17;;;;;;;-148.88;93.29;74473.41;4994422;28;20037;-88
2022/09/27 09:08:41;;;;;;;5.50;1.30;;;;;;;-148.88;93.56;74473.41;4990468;28;20441;-88
2022/09/27 09:14:38;;;;;;;3.88;1.10;;;;;;;-148.88;92.24;74509.94;4994657;28;20088;-88
2022/09/27 09:17:30;;;;;;;2.80;1.00;;;;;;;-148.88;93.43;74534.31;4993908;28;20110;-87
2022/09/27 09:20:21;;;;;;;7.18;1.70;;;;;;;-148.88;94.09;74550.56;4993940;28;20030;-87
2022/09/27 09:23:10;;;;;;;4.93;1.73;;;;;;;-148.88;95.21;74552.59;4995002;28;20027;-87
2022/09/27 09:26:00;;;;;;;5.63;2.05;;;;;;;-148.88;96.39;74574.94;4993965;28;20026;-87
2022/09/27 09:28:58;;;;;;;9.25;1.83;;;;;;;-148.88;96.96;74574.94;4995325;28;20026;-87
2022/09/27 09:31:49;;;;;;;7.50;1.75;;;;;;;-148.88;98.49;74585.09;4994540;28;20023;-86
2022/09/27 09:34:33;;;;;;;5.40;1.45;;;;;;;-148.88;98.37;74579.00;4994492;28;20034;-87
2022/09/27 09:37:01;;;;;;;4.43;1.92;;;;;;;-148.88;97.77;74583.06;4993696;28;20092;-88
2022/09/27 09:39:50;;;;;;;3.78;1.70;;;;;;;-148.88;97.80;74570.88;4994404;28;20101;-87
2022/09/27 09:42:32;;;;;;;6.07;1.90;;;;;;;-148.88;99.11;74554.63;4993617;28;20495;-88
2022/09/27 09:45:19;;;;;;;4.18;1.10;;;;;;;-148.88;95.06;74514.00;4993860;28;20065;-89
2022/09/27 09:48:04;;;;;;;5.43;1.42;;;;;;;-148.88;91.44;74487.63;4993989;28;20026;-88
2022/09/27 09:50:53;;;;;;;5.93;1.15;;;;;;;-148.88;89.20;74473.41;4994094;28;20520;-87
2022/09/27 09:53:48;;;;;;;5.55;1.13;;;;;;;-148.88;90.16;74420.59;4992532;28;20413;-87
2022/09/27 09:56:21;;;;;;;4.00;1.10;;;;;;;-148.88;88.35;74432.78;4993052;28;20030;-88
2022/09/27 09:58:55;;;;;;;3.08;0.50;;;;;;;-148.88;89.87;74449.03;4993925;28;20034;-88
2022/09/27 10:01:30;;;;;;;5.75;1.23;;;;;;;-148.88;89.77;74422.63;4993459;28;20081;-87
2022/09/27 10:04:03;;;;;;;3.30;0.90;;;;;;;-148.88;89.24;74390.16;4994044;28;20087;-88
2022/09/27 10:06:38;;;;;;;3.17;1.02;;;;;;;-148.88;87.56;74367.81;4993411;28;20490;-88
2022/09/27 10:09:03;;;;;;;5.10;0.90;;;;;;;-148.88;85.57;74369.84;4992769;28;20037;-89
2022/09/27 10:11:43;;;;;;;5.65;1.40;;;;;;;-148.88;85.40;74367.81;4993522;28;20018;-88
2022/09/27 10:14:18;;;;;;;4.65;1.20;;;;;;;-148.88;83.81;74396.25;4993558;28;20084;-88
2022/09/27 10:16:53;;;;;;;4.30;0.90;;;;;;;-148.88;86.20;74438.88;4992784;28;20049;-88
2022/09/27 10:19:33;;;;;;;3.13;0.90;;;;;;;-148.88;88.85;74477.47;4992689;28;20030;-89
2022/09/27 10:22:16;;;;;;;3.28;0.80;;;;;;;-148.88;89.59;74449.03;4994200;28;20022;-87
2022/09/27 10:25:07;;;;;;;2.77;0.90;;;;;;;-148.88;88.36;74400.31;4992294;28;20104;-88
2022/09/27 10:27:58;;;;;;;2.50;0.70;;;;;;;-148.88;86.20;74382.03;4994135;28;20276;-88
2022/09/27 10:30:37;;;;;;;3.08;0.93;;;;;;;-148.88;85.03;74380.00;4988020;28;20408;-89
2022/09/27 10:33:22;;;;;;;4.53;1.02;;;;;;;-148.88;84.42;74323.16;4993365;28;20030;-88
2022/09/27 10:35:49;;;;;;;2.42;0.82;;;;;;;-148.88;82.14;74347.50;4993041;28;20041;-88
2022/09/27 10:38:29;;;;;;;3.95;1.00;;;;;;;-148.88;81.63;74329.22;4993174;28;20380;-89
2022/09/27 10:41:25;;;;;;;4.10;1.10;;;;;;;-148.88;81.28;74258.16;4993199;28;20065;-90
2022/09/27 10:43:56;;;;;;;2.58;0.82;;;;;;;-148.88;77.45;74274.41;4999510;28;20030;-90
2022/09/27 10:46:38;;;;;;;4.45;0.82;;;;;;;-148.88;78.94;74233.81;4992420;28;20100;-90
2022/09/27 10:49:23;;;;;;;3.35;1.08;;;;;;;-148.88;77.45;74221.63;4993007;28;20030;-88
2022/09/27 10:51:56;;;;;;;2.47;1.00;;;;;;;-148.88;77.06;74237.88;4993316;28;20022;-88
2022/09/27 10:54:53;;;;;;;5.75;2.53;;;;;;;-148.88;79.42;74256.13;4993253;28;20042;-89
2022/09/27 10:57:23;;;;;;;5.35;1.70;;;;;;;-148.88;80.30;74254.09;4993080;28;20034;-89
2022/09/27 11:00:05;;;;;;;6.50;2.38;;;;;;;-148.88;79.90;74292.69;4992612;28;20481;-88
2022/09/27 11:02:40;;;;;;;4.97;1.40;;;;;;;-148.88;83.28;74319.09;4993353;28;20101;-87
2022/09/27 11:05:29;;;;;;;5.25;1.48;;;;;;;-148.88;82.76;74351.56;4992948;28;20033;-89
2022/09/27 11:08:18;;;;;;;5.05;1.50;;;;;;;-148.88;84.80;74369.84;4993000;28;20153;-87
2022/09/27 11:11:00;;;;;;;5.50;1.67;;;;;;;-148.88;86.75;74392.19;4992256;28;20023;-89
2022/09/27 11:13:33;;;;;;;5.50;1.48;;;;;;;-148.88;87.16;74396.25;4994736;28;20039;-88
2022/09/27 11:17:00;;;;;;;4.53;1.23;;;;;;;-148.88;85.37;74359.69;4992159;28;20481;-89
2022/09/27 11:19:57;;;;;;;3.15;1.10;;;;;;;-148.88;81.94;74286.59;4938065;29;20081;-87
2022/09/27 11:22:48;;;;;;;2.53;1.05;;;;;;;-148.88;80.69;74217.56;4994079;28;20420;-89
2022/09/27 11:25:27;;;;;;;3.00;1.10;;;;;;;-148.88;80.01;74164.78;4993544;28;20034;-89
2022/09/27 11:28:13;;;;;;;3.17;0.75;;;;;;;-148.88;74.37;74136.34;4994819;28;20085;-89
2022/09/27 11:31:08;;;;;;;3.97;0.80;;;;;;;-148.88;74.81;74160.72;4992775;28;20477;-90
2022/09/27 11:33:53;;;;;;;3.00;1.10;;;;;;;-148.88;74.79;74227.72;4992989;28;20128;-88
2022/09/27 11:36:30;;;;;;;4.22;1.27;;;;;;;-148.88;76.02;74231.78;4994109;28;20027;-90
2022/09/27 11:39:21;;;;;;;2.97;0.70;;;;;;;-148.88;74.93;74225.69;4996298;28;20030;-88